Time;durP1;ratioP1;P1;durP2;ratioP2;P2;SDS_P1;SDS_P2;PMS_P1;PMS_P2;Temp;Humidity;BMP_temperature;BMP_pressure;BME280_temperature;BME280_humidity;BME280_pressure;Samples;Min_cycle;Max_cycle;Signal;HPM_P1;HPM_P2
2022/05/06 00:00:53;;;;;;;9.32;5.28;;;;;;;8.97;100.00;96092.91;5016527;28;20245;-61
2022/05/06 00:03:18;;;;;;;4.88;4.57;;;;;;;8.98;100.00;96091.16;5021591;28;20084;-61
2022/05/06 00:05:44;;;;;;;5.55;5.13;;;;;;;8.96;100.00;96090.44;5023627;28;20040;-60
2022/05/06 00:08:11;;;;;;;5.63;5.13;;;;;;;8.95;100.00;96092.22;5017685;28;20533;-61
2022/05/06 00:10:36;;;;;;;5.70;5.30;;;;;;;8.98;100.00;96085.88;5023056;28;20041;-60
2022/05/06 00:13:02;;;;;;;5.63;5.22;;;;;;;8.94;100.00;96084.44;5022667;28;20451;-61
2022/05/06 00:15:27;;;;;;;7.18;6.22;;;;;;;8.90;100.00;96089.13;5019625;28;20018;-61
2022/05/06 00:17:52;;;;;;;6.10;5.60;;;;;;;8.89;100.00;96085.66;5016020;28;20489;-61
2022/05/06 00:20:18;;;;;;;7.88;6.25;;;;;;;8.87;100.00;96082.31;5023494;28;20481;-61
2022/05/06 00:22:44;;;;;;;6.57;6.07;;;;;;;8.86;100.00;96083.28;5018781;28;20026;-61
2022/05/06 00:25:09;;;;;;;7.03;6.32;;;;;;;8.91;100.00;96075.03;5019547;28;20061;-60
2022/05/06 00:27:39;;;;;;;5.78;5.28;;;;;;;8.95;100.00;96080.84;5019729;28;20056;-61
2022/05/06 00:30:05;;;;;;;6.25;5.72;;;;;;;8.96;100.00;96074.69;5016918;28;20029;-62
2022/05/06 00:32:30;;;;;;;6.13;5.63;;;;;;;8.97;100.00;96068.47;5018790;28;20373;-60
2022/05/06 00:34:55;;;;;;;6.05;5.55;;;;;;;8.92;100.00;96073.22;5019953;28;20057;-61
2022/05/06 00:37:21;;;;;;;6.32;5.43;;;;;;;8.89;100.00;96069.88;5020618;28;20041;-61
2022/05/06 00:39:46;;;;;;;6.32;5.82;;;;;;;8.91;100.00;96066.31;5014609;28;20029;-61
2022/05/06 00:42:11;;;;;;;6.30;5.80;;;;;;;8.91;100.00;96063.69;5020996;28;20095;-60
2022/05/06 00:44:37;;;;;;;6.72;6.18;;;;;;;8.93;100.00;96065.25;5020164;28;20044;-60
2022/05/06 00:47:04;;;;;;;5.88;5.47;;;;;;;8.93;100.00;96056.50;5022888;28;20042;-60
2022/05/06 00:49:30;;;;;;;5.70;5.30;;;;;;;8.88;100.00;96060.34;5019787;28;20492;-61
2022/05/06 00:51:56;;;;;;;6.60;5.97;;;;;;;8.93;100.00;96057.34;5023937;28;20024;-61
2022/05/06 00:54:23;;;;;;;6.63;6.03;;;;;;;8.91;100.00;96058.44;5027675;28;20040;-60
2022/05/06 00:56:50;;;;;;;5.80;5.18;;;;;;;8.93;100.00;96065.25;5021610;28;20509;-61
2022/05/06 00:59:16;;;;;;;8.73;5.70;;;;;;;8.87;100.00;96050.81;5023092;28;20416;-61
2022/05/06 01:01:41;;;;;;;6.25;5.75;;;;;;;8.94;100.00;96058.19;5021114;28;20109;-61
2022/05/06 01:04:07;;;;;;;6.10;5.60;;;;;;;8.97;100.00;96057.97;5022919;28;20025;-60
2022/05/06 01:06:35;;;;;;;5.95;5.53;;;;;;;8.91;100.00;96055.81;5024794;28;20028;-61
2022/05/06 01:09:00;;;;;;;6.18;5.68;;;;;;;8.87;100.00;96052.59;5027150;28;20501;-60
2022/05/06 01:11:26;;;;;;;6.10;5.47;;;;;;;8.85;100.00;96060.59;5021814;28;20064;-60
2022/05/06 01:13:55;;;;;;;5.72;5.22;;;;;;;8.83;100.00;96052.00;5022152;28;20489;-61
2022/05/06 01:16:20;;;;;;;5.70;5.30;;;;;;;8.91;100.00;96045.31;5022450;28;20041;-60
2022/05/06 01:18:47;;;;;;;6.05;5.63;;;;;;;8.85;100.00;96047.47;5023771;28;20026;-60
2022/05/06 01:21:21;;;;;;;6.43;5.82;;;;;;;8.81;100.00;96045.19;5026002;28;20032;-61
2022/05/06 01:23:47;;;;;;;5.70;5.20;;;;;;;8.78;100.00;96041.03;5019210;28;20018;-61
2022/05/06 01:26:12;;;;;;;6.28;5.88;;;;;;;8.76;100.00;96037.72;5021662;28;20026;-61
2022/05/06 01:28:38;;;;;;;6.60;6.00;;;;;;;8.78;100.00;96034.94;5020499;28;20484;-61
2022/05/06 01:31:05;;;;;;;5.70;5.18;;;;;;;8.90;100.00;96041.84;5017802;28;20481;-60
2022/05/06 01:33:31;;;;;;;5.78;5.28;;;;;;;8.91;100.00;96032.16;5020842;28;20033;-61
2022/05/06 01:36:03;;;;;;;6.53;5.15;;;;;;;8.90;100.00;96039.22;5021284;28;20040;-61
2022/05/06 01:38:42;;;;;;;6.00;5.55;;;;;;;8.86;100.00;96041.25;5026811;28;20049;-61
2022/05/06 01:41:15;;;;;;;7.20;5.72;;;;;;;8.78;100.00;96040.19;5024664;28;20061;-61
2022/05/06 01:43:49;;;;;;;6.20;5.70;;;;;;;8.76;100.00;96035.09;5015814;28;20485;-61
2022/05/06 01:46:15;;;;;;;5.50;5.10;;;;;;;8.78;100.00;96043.66;5025842;28;21778;-61
2022/05/06 01:48:42;;;;;;;4.97;4.68;;;;;;;8.77;100.00;96035.91;5021191;28;20037;-60
2022/05/06 01:51:10;;;;;;;5.93;5.32;;;;;;;8.79;100.00;96039.25;5021901;28;20026;-60
2022/05/06 01:53:36;;;;;;;5.28;4.88;;;;;;;8.81;100.00;96046.03;5019799;28;20025;-60
2022/05/06 01:56:02;;;;;;;5.38;5.00;;;;;;;8.84;100.00;96050.19;5020545;28;20038;-60
2022/05/06 01:58:28;;;;;;;5.70;5.25;;;;;;;8.83;100.00;96040.66;5021635;28;20037;-61
2022/05/06 02:00:53;;;;;;;5.05;4.55;;;;;;;8.82;100.00;96034.59;5022127;28;20029;-60
2022/05/06 02:06:03;;;;;;;5.15;4.75;;;;;;;8.83;100.00;96036.25;5018003;28;20088;-61
2022/05/06 02:08:28;;;;;;;5.55;5.05;;;;;;;8.84;100.00;96029.19;5020819;28;20473;-61
2022/05/06 02:10:53;;;;;;;5.90;5.50;;;;;;;8.84;100.00;96037.06;5020939;28;20036;-60
2022/05/06 02:13:19;;;;;;;5.50;5.10;;;;;;;8.82;100.00;96034.59;5019543;28;20820;-61
2022/05/06 02:15:45;;;;;;;5.57;5.18;;;;;;;8.82;100.00;96024.09;5016942;28;20030;-61
2022/05/06 02:18:10;;;;;;;5.57;5.18;;;;;;;8.81;100.00;96025.03;5021018;28;20065;-61
2022/05/06 02:20:37;;;;;;;8.93;5.25;;;;;;;8.82;100.00;96016.22;5022015;28;20026;-61
2022/05/06 02:23:02;;;;;;;5.63;5.22;;;;;;;8.84;100.00;96016.91;5023039;28;20046;-61
2022/05/06 02:25:28;;;;;;;5.75;5.32;;;;;;;8.88;100.00;96018.34;5018947;28;20067;-60
2022/05/06 02:27:53;;;;;;;5.43;5.03;;;;;;;8.91;100.00;96008.53;5016589;28;20029;-61
2022/05/06 02:33:15;;;;;;;5.63;5.13;;;;;;;8.91;100.00;96016.41;5015586;28;20092;-60
2022/05/06 02:35:44;;;;;;;7.38;5.45;;;;;;;8.86;100.00;96011.56;5018119;28;20087;-60
2022/05/06 02:38:11;;;;;;;5.47;5.07;;;;;;;8.82;100.00;96018.84;5017557;28;20033;-60
2022/05/06 02:40:38;;;;;;;5.43;4.85;;;;;;;8.80;100.00;96020.75;5015372;28;20029;-61
2022/05/06 02:43:05;;;;;;;5.03;4.68;;;;;;;8.82;100.00;96013.59;5018932;28;20030;-60
2022/05/06 02:45:32;;;;;;;5.10;4.72;;;;;;;8.80;100.00;96010.25;5017365;28;20042;-61
2022/05/06 02:47:57;;;;;;;5.65;5.20;;;;;;;8.77;100.00;96015.75;5014462;28;20033;-61
2022/05/06 02:50:23;;;;;;;5.93;5.53;;;;;;;8.77;100.00;96009.66;5015392;28;20029;-61
2022/05/06 02:52:49;;;;;;;6.38;5.00;;;;;;;8.79;100.00;96008.59;5020422;28;20049;-61
2022/05/06 02:55:14;;;;;;;5.13;4.82;;;;;;;8.79;100.00;96019.09;5018416;28;20520;-60
2022/05/06 02:57:40;;;;;;;5.65;5.25;;;;;;;8.79;100.00;96008.59;5016458;28;20022;-61
2022/05/06 03:00:06;;;;;;;5.72;5.30;;;;;;;8.82;100.00;96012.72;5018058;28;20050;-61
2022/05/06 03:02:32;;;;;;;6.15;5.60;;;;;;;8.80;100.00;96007.63;5020277;28;20485;-60
2022/05/06 03:04:57;;;;;;;5.90;5.40;;;;;;;8.76;100.00;96002.72;5014648;28;20101;-61
2022/05/06 03:07:23;;;;;;;6.68;6.07;;;;;;;8.77;100.00;96004.41;5018451;28;20120;-60
2022/05/06 03:09:48;;;;;;;6.30;5.70;;;;;;;8.77;100.00;95996.53;5022908;28;20017;-61
2022/05/06 03:12:16;;;;;;;7.18;6.13;;;;;;;8.77;100.00;96004.41;5013500;28;20112;-61
2022/05/06 03:14:42;;;;;;;6.00;5.40;;;;;;;8.70;100.00;95997.03;5017366;28;20033;-61
2022/05/06 03:17:07;;;;;;;6.47;5.88;;;;;;;8.69;100.00;96003.22;5020001;28;20588;-60
2022/05/06 03:19:33;;;;;;;6.45;5.85;;;;;;;8.72;100.00;95996.88;5017730;28;20540;-60
2022/05/06 03:21:59;;;;;;;7.07;6.15;;;;;;;8.76;100.00;95989.59;5025484;28;20029;-61
2022/05/06 03:24:24;;;;;;;6.65;5.85;;;;;;;8.75;100.00;95983.53;5019314;28;20033;-61
2022/05/06 03:26:49;;;;;;;6.05;5.65;;;;;;;8.74;100.00;95977.44;5015522;28;20105;-60
2022/05/06 03:29:15;;;;;;;6.78;6.15;;;;;;;8.74;100.00;95982.69;5018625;28;20032;-61
2022/05/06 03:31:40;;;;;;;6.45;5.95;;;;;;;8.73;100.00;95973.16;5017907;28;20324;-61
2022/05/06 03:34:06;;;;;;;6.65;6.05;;;;;;;8.73;100.00;95972.31;5023065;28;20033;-61
2022/05/06 03:36:33;;;;;;;6.70;6.20;;;;;;;8.71;100.00;95974.22;5016203;28;20076;-61
2022/05/06 03:38:59;;;;;;;6.55;6.03;;;;;;;8.69;100.00;95965.63;5017413;28;20088;-61
2022/05/06 03:41:25;;;;;;;6.82;6.32;;;;;;;8.68;100.00;95966.59;5015067;28;20037;-60
2022/05/06 03:43:50;;;;;;;6.85;6.25;;;;;;;8.69;100.00;95970.88;5015439;28;20492;-61
2022/05/06 03:46:15;;;;;;;6.93;6.32;;;;;;;8.69;100.00;95965.63;5015949;28;20451;-61
2022/05/06 03:48:41;;;;;;;7.20;6.60;;;;;;;8.70;100.00;95962.91;5018322;28;20030;-61
2022/05/06 03:51:22;;;;;;;6.43;5.93;;;;;;;8.71;100.00;95967.19;5019395;28;20030;-61
2022/05/06 03:53:48;;;;;;;5.75;5.35;;;;;;;8.84;100.00;95967.03;5020879;28;20032;-61
2022/05/06 03:56:13;;;;;;;6.25;5.75;;;;;;;8.74;100.00;95960.88;5014558;28;20030;-61
2022/05/06 03:58:39;;;;;;;7.50;6.80;;;;;;;8.70;100.00;95959.44;5027665;28;20121;-61
2022/05/06 04:01:05;;;;;;;7.50;6.90;;;;;;;8.68;100.00;95956.94;5018562;28;20105;-60
2022/05/06 04:03:31;;;;;;;7.05;6.43;;;;;;;8.69;100.00;95955.13;5020395;28;20486;-61
2022/05/06 04:05:57;;;;;;;6.45;5.95;;;;;;;8.69;100.00;95963.00;5017836;28;20030;-61
2022/05/06 04:08:22;;;;;;;6.90;6.22;;;;;;;8.70;100.00;95967.31;5018533;28;20029;-60
2022/05/06 04:10:48;;;;;;;6.20;5.65;;;;;;;8.68;100.00;95964.81;5014710;28;20025;-60
2022/05/06 04:13:13;;;;;;;5.68;5.28;;;;;;;8.69;100.00;95963.88;5028205;28;20069;-60
2022/05/06 04:15:38;;;;;;;8.43;5.90;;;;;;;8.70;100.00;95952.41;5012702;28;20022;-61
2022/05/06 04:18:04;;;;;;;6.30;5.80;;;;;;;8.72;100.00;95954.88;5012219;28;20058;-61
2022/05/06 04:23:29;;;;;;;7.45;6.68;;;;;;;8.68;100.00;95970.06;5014704;28;20041;-62
2022/05/06 04:26:08;;;;;;;9.00;6.65;;;;;;;8.60;100.00;95972.47;5023756;28;20039;-61
2022/05/06 04:28:36;;;;;;;6.95;6.35;;;;;;;8.64;100.00;95973.06;5022210;28;20560;-60
2022/05/06 04:31:02;;;;;;;8.43;7.65;;;;;;;8.63;100.00;95963.50;5024300;28;20120;-61
2022/05/06 04:33:28;;;;;;;7.40;6.80;;;;;;;8.60;100.00;95959.34;5026507;28;20040;-61
2022/05/06 04:35:56;;;;;;;8.20;7.40;;;;;;;8.58;100.00;95969.13;5022304;28;20044;-61
2022/05/06 04:38:22;;;;;;;7.72;7.13;;;;;;;8.54;100.00;95976.44;5018661;28;20033;-62
2022/05/06 04:40:48;;;;;;;13.77;7.28;;;;;;;8.57;100.00;95973.56;5026407;28;20029;-62
2022/05/06 04:43:16;;;;;;;7.55;6.95;;;;;;;8.57;100.00;95968.31;5025217;28;20041;-62
2022/05/06 04:45:43;;;;;;;7.60;7.03;;;;;;;8.64;100.00;95973.06;5018906;28;20057;-62
2022/05/06 04:48:11;;;;;;;8.35;7.55;;;;;;;8.67;100.00;95967.56;5026457;28;20076;-61
2022/05/06 04:50:37;;;;;;;7.13;6.55;;;;;;;8.58;100.00;95971.75;5016701;28;20061;-61
2022/05/06 04:53:07;;;;;;;7.50;6.82;;;;;;;8.54;100.00;95971.19;5026196;28;20013;-62
2022/05/06 04:55:33;;;;;;;7.50;6.90;;;;;;;8.53;100.00;95971.28;5022804;28;20021;-62
2022/05/06 04:57:58;;;;;;;10.30;7.05;;;;;;;8.50;100.00;95974.16;5018935;28;20404;-62
2022/05/06 05:00:23;;;;;;;7.90;7.28;;;;;;;8.45;100.00;95974.47;5024740;28;20051;-60
2022/05/06 05:02:49;;;;;;;8.15;7.35;;;;;;;8.49;100.00;95975.91;5029122;28;20619;-61
2022/05/06 05:05:15;;;;;;;8.38;7.68;;;;;;;8.52;100.00;95977.50;5018434;28;20037;-61
2022/05/06 05:07:41;;;;;;;8.05;7.35;;;;;;;8.54;100.00;95979.06;5026552;28;20033;-61
2022/05/06 05:10:08;;;;;;;8.15;7.55;;;;;;;8.57;100.00;95973.56;5024966;28;20040;-61
2022/05/06 05:12:35;;;;;;;10.07;7.45;;;;;;;8.63;100.00;95981.88;5024910;28;20064;-60
2022/05/06 05:15:01;;;;;;;8.25;7.53;;;;;;;8.65;100.00;95977.34;5027536;28;20049;-61
2022/05/06 05:17:26;;;;;;;7.55;6.95;;;;;;;8.68;100.00;95970.06;5013796;28;20071;-61
2022/05/06 05:19:52;;;;;;;8.10;7.30;;;;;;;8.73;100.00;95967.91;5012785;28;20507;-61
2022/05/06 05:22:18;;;;;;;7.80;7.20;;;;;;;8.79;100.00;95971.84;5017150;28;20565;-60
2022/05/06 05:24:44;;;;;;;8.00;7.30;;;;;;;8.85;100.00;95973.94;5013931;28;20436;-61
2022/05/06 05:27:10;;;;;;;8.40;7.50;;;;;;;8.94;100.00;95979.41;5021395;28;20026;-61
2022/05/06 05:29:36;;;;;;;8.35;7.57;;;;;;;8.93;100.00;95972.47;5027819;28;20080;-61
2022/05/06 05:32:02;;;;;;;8.02;7.43;;;;;;;8.94;100.00;95968.91;5026256;28;20101;-61
2022/05/06 05:34:27;;;;;;;7.78;7.07;;;;;;;8.90;100.00;95968.34;5018511;28;20036;-60
2022/05/06 05:36:53;;;;;;;10.27;7.60;;;;;;;8.91;100.00;95977.03;5017452;28;20022;-61
2022/05/06 05:39:18;;;;;;;8.10;7.40;;;;;;;8.95;100.00;95973.19;5029932;28;20036;-61
2022/05/06 05:41:43;;;;;;;7.90;7.30;;;;;;;8.97;100.00;95974.75;5018230;28;20477;-60
2022/05/06 05:49:37;;;;;;;8.95;8.15;;;;;;;9.15;100.00;95982.91;5016854;28;20121;-61
2022/05/06 05:52:03;;;;;;;10.23;9.02;;;;;;;9.15;100.00;95975.03;5021858;28;20101;-61
2022/05/06 05:54:28;;;;;;;10.68;9.77;;;;;;;9.20;100.00;95984.34;5018459;28;20034;-60
2022/05/06 05:56:54;;;;;;;9.25;8.45;;;;;;;9.23;100.00;95984.91;5021676;28;20029;-61
2022/05/06 05:59:20;;;;;;;11.55;9.57;;;;;;;9.25;100.00;95985.59;5026925;28;20056;-61
2022/05/06 06:01:46;;;;;;;10.15;9.35;;;;;;;9.28;100.00;95987.16;5017886;28;20100;-60
2022/05/06 06:04:11;;;;;;;9.88;9.10;;;;;;;9.38;100.00;95984.59;5019131;28;20049;-60
2022/05/06 06:06:37;;;;;;;10.45;9.65;;;;;;;9.37;100.00;95999.53;5012780;28;20488;-60
2022/05/06 06:09:02;;;;;;;11.13;10.18;;;;;;;9.36;100.00;95989.97;5011848;28;20025;-60
2022/05/06 06:11:28;;;;;;;12.32;11.15;;;;;;;9.40;100.00;95991.41;5018074;28;20036;-61
2022/05/06 06:13:54;;;;;;;11.70;10.18;;;;;;;9.51;100.00;95985.25;5020025;28;20027;-60
2022/05/06 06:16:19;;;;;;;11.20;10.27;;;;;;;9.62;100.00;95986.16;5016367;28;20053;-61
2022/05/06 06:18:45;;;;;;;9.73;9.02;;;;;;;9.60;100.00;95983.63;5021468;28;20068;-60
2022/05/06 06:21:11;;;;;;;9.98;9.07;;;;;;;9.66;100.00;95980.50;5018576;28;20036;-61
2022/05/06 06:23:37;;;;;;;10.02;9.20;;;;;;;9.71;100.00;95980.94;5024986;28;20128;-60
2022/05/06 06:26:02;;;;;;;9.23;8.43;;;;;;;9.81;100.00;95978.38;5014782;28;20030;-60
2022/05/06 06:28:27;;;;;;;10.23;9.35;;;;;;;9.83;100.00;95973.81;5021806;28;20409;-60
2022/05/06 06:30:53;;;;;;;9.18;8.40;;;;;;;9.95;100.00;95979.00;5014423;28;20115;-60
2022/05/06 06:33:18;;;;;;;8.27;7.40;;;;;;;10.04;100.00;95984.28;5027039;28;20021;-60
2022/05/06 06:35:44;;;;;;;8.57;7.88;;;;;;;10.15;100.00;95982.56;5018709;28;20385;-60
2022/05/06 06:38:09;;;;;;;8.35;7.45;;;;;;;10.25;100.00;95985.22;5015014;28;20040;-59
2022/05/06 06:40:35;;;;;;;8.25;6.78;;;;;;;10.27;100.00;95978.03;5011144;28;20026;-60
2022/05/06 06:43:04;;;;;;;7.78;6.60;;;;;;;10.29;100.00;95976.09;5018257;28;20100;-60
2022/05/06 06:45:31;;;;;;;7.60;7.00;;;;;;;10.37;100.00;95985.97;5019001;28;20439;-60
2022/05/06 06:47:58;;;;;;;7.05;6.53;;;;;;;10.44;100.00;95984.47;5015688;28;20025;-60
2022/05/06 06:50:24;;;;;;;6.60;6.03;;;;;;;10.67;99.71;95981.63;5016770;28;20025;-60
2022/05/06 06:52:50;;;;;;;14.07;6.40;;;;;;;10.75;99.00;95981.81;5016516;28;20130;-60
2022/05/06 06:55:15;;;;;;;6.78;6.15;;;;;;;10.91;98.10;95980.41;5016443;28;20109;-60
2022/05/06 06:57:41;;;;;;;6.32;5.82;;;;;;;10.93;97.75;95979.31;5016864;28;20022;-60
2022/05/06 07:00:08;;;;;;;6.85;6.15;;;;;;;11.03;96.36;95974.88;5023189;28;20046;-60
2022/05/06 07:02:34;;;;;;;16.17;5.70;;;;;;;11.22;97.22;95975.03;5018146;28;20465;-60
2022/05/06 07:05:01;;;;;;;6.38;5.70;;;;;;;11.44;95.06;95984.44;5019657;28;20099;-61
2022/05/06 07:12:54;;;;;;;5.95;5.45;;;;;;;11.66;92.91;95975.41;5020695;28;20053;-60
2022/05/06 07:15:20;;;;;;;5.00;4.68;;;;;;;11.81;93.08;95974.94;5017577;28;20030;-60
2022/05/06 07:17:45;;;;;;;5.80;4.47;;;;;;;12.05;91.24;95974.50;5021911;28;20516;-60
2022/05/06 07:20:11;;;;;;;6.70;4.28;;;;;;;12.27;90.22;95969.84;5015779;28;20030;-60
2022/05/06 07:22:36;;;;;;;4.35;4.05;;;;;;;12.29;88.16;95966.09;5026906;28;20025;-61
2022/05/06 07:25:02;;;;;;;5.28;4.80;;;;;;;12.42;86.95;95971.03;5017030;28;20429;-60
2022/05/06 07:27:28;;;;;;;4.00;3.70;;;;;;;12.54;85.89;95963.75;5021025;28;20100;-60
2022/05/06 07:29:53;;;;;;;4.07;3.67;;;;;;;12.68;85.14;95964.19;5023705;28;20053;-61
2022/05/06 07:32:18;;;;;;;3.63;3.33;;;;;;;12.77;83.19;95973.03;5023241;28;20036;-60
2022/05/06 07:34:43;;;;;;;3.03;2.83;;;;;;;12.69;82.77;95965.88;5014726;28;20461;-60
2022/05/06 07:37:09;;;;;;;6.93;3.40;;;;;;;12.52;83.22;95959.56;5020125;28;20044;-60
2022/05/06 07:39:34;;;;;;;2.92;2.72;;;;;;;12.46;84.25;95956.56;5027938;28;20045;-60
2022/05/06 07:42:00;;;;;;;3.17;2.97;;;;;;;12.54;83.96;95963.75;5014278;28;20092;-60
2022/05/06 07:44:26;;;;;;;2.97;2.78;;;;;;;12.50;83.63;95965.03;5014686;28;20037;-60
2022/05/06 07:46:51;;;;;;;3.90;3.30;;;;;;;12.54;83.90;95953.19;5018881;28;20034;-60
2022/05/06 07:49:17;;;;;;;2.83;2.72;;;;;;;12.57;81.99;95958.16;5014317;28;20049;-61
2022/05/06 07:51:43;;;;;;;3.85;3.55;;;;;;;12.38;82.75;95959.09;5022472;28;20029;-61
2022/05/06 07:54:09;;;;;;;6.00;3.42;;;;;;;12.38;82.51;95960.91;5023040;28;20496;-60
2022/05/06 07:56:34;;;;;;;4.00;3.70;;;;;;;12.15;82.90;95966.56;5024929;28;20033;-60
2022/05/06 07:59:00;;;;;;;4.95;3.45;;;;;;;12.08;82.63;95970.75;5021918;28;20041;-60
2022/05/06 08:06:54;;;;;;;4.32;3.90;;;;;;;12.17;84.45;95969.88;5025217;28;20079;-60
2022/05/06 08:09:22;;;;;;;3.97;3.30;;;;;;;12.44;82.67;95957.66;5028248;28;20508;-60
2022/05/06 08:11:48;;;;;;;3.58;3.17;;;;;;;12.50;81.65;95966.81;5022116;28;20040;-60
2022/05/06 08:14:15;;;;;;;3.08;2.70;;;;;;;12.61;82.29;95964.81;5023821;28;20030;-60
2022/05/06 08:16:41;;;;;;;3.28;3.05;;;;;;;12.69;81.00;95966.72;5028597;28;20029;-61
2022/05/06 08:19:06;;;;;;;3.10;2.90;;;;;;;12.77;80.95;95967.75;5018135;28;20029;-60
2022/05/06 08:21:32;;;;;;;2.90;2.70;;;;;;;12.93;79.66;95967.94;5021104;28;20022;-60
2022/05/06 08:23:57;;;;;;;3.83;2.70;;;;;;;13.02;78.04;95967.03;5022373;28;20514;-60
2022/05/06 08:26:22;;;;;;;2.90;2.70;;;;;;;13.03;79.01;95959.94;5013228;28;20025;-60
2022/05/06 08:28:48;;;;;;;3.00;2.80;;;;;;;12.96;77.64;95965.00;5023756;28;20045;-60
2022/05/06 08:31:13;;;;;;;2.60;2.40;;;;;;;12.98;79.82;95957.75;5021211;28;20034;-60
2022/05/06 08:33:39;;;;;;;2.70;2.50;;;;;;;13.13;78.15;95967.81;5018948;28;20030;-60
2022/05/06 08:36:05;;;;;;;2.50;2.40;;;;;;;13.03;77.29;95968.69;5014232;28;20037;-60
2022/05/06 08:38:30;;;;;;;4.75;2.22;;;;;;;12.93;78.55;95973.22;5023450;28;20033;-60
2022/05/06 08:40:57;;;;;;;2.38;2.17;;;;;;;12.93;78.93;95972.38;5018569;28;20058;-60
2022/05/06 08:43:22;;;;;;;2.55;2.17;;;;;;;12.98;77.60;95965.66;5020309;28;20041;-60
2022/05/06 08:51:20;;;;;;;2.17;2.08;;;;;;;13.04;77.40;95970.38;5019315;28;19986;-60
2022/05/06 08:53:45;;;;;;;2.30;2.20;;;;;;;12.95;77.81;95976.53;5016665;28;20026;-60
2022/05/06 08:56:11;;;;;;;2.35;2.25;;;;;;;12.90;76.29;95973.53;5019175;28;20032;-60
2022/05/06 08:58:41;;;;;;;2.45;2.35;;;;;;;12.73;77.52;95969.91;5010772;28;20528;-60
2022/05/06 09:01:11;;;;;;;2.10;2.00;;;;;;;12.67;78.61;95968.66;5018522;28;20037;-60
2022/05/06 09:03:41;;;;;;;5.10;2.60;;;;;;;12.89;78.14;95969.22;5025923;28;20042;-60
2022/05/06 09:06:20;;;;;;;2.08;1.98;;;;;;;12.75;77.96;95976.66;5027054;28;20036;-60
2022/05/06 09:08:47;;;;;;;2.05;1.95;;;;;;;12.96;77.01;95969.47;5021632;28;20088;-59
2022/05/06 09:11:13;;;;;;;2.47;2.30;;;;;;;12.79;77.48;95977.22;5021260;28;20097;-60
2022/05/06 09:13:52;;;;;;;2.75;2.63;;;;;;;12.73;76.56;95978.63;5023943;28;20116;-60
2022/05/06 09:16:40;;;;;;;2.50;2.30;;;;;;;12.71;77.25;95979.75;5026740;28;20037;-60
2022/05/06 09:19:27;;;;;;;2.50;2.30;;;;;;;12.68;78.57;95980.06;5017406;28;20042;-60
2022/05/06 09:22:13;;;;;;;2.40;2.20;;;;;;;12.78;78.03;95982.63;5025896;28;20033;-60
2022/05/06 09:24:39;;;;;;;2.60;2.50;;;;;;;12.85;78.41;95987.19;5019306;28;20420;-60
2022/05/06 09:27:09;;;;;;;2.30;2.20;;;;;;;13.13;77.16;95984.47;5023436;28;20370;-60
2022/05/06 09:29:38;;;;;;;2.80;2.60;;;;;;;13.24;77.25;95980.78;5018976;28;20032;-61
2022/05/06 09:32:17;;;;;;;4.85;2.22;;;;;;;13.56;75.07;95978.59;5026396;28;20026;-60
2022/05/06 09:34:45;;;;;;;2.63;2.30;;;;;;;13.57;75.38;95974.97;5024840;28;20041;-61
2022/05/06 09:37:10;;;;;;;2.25;2.05;;;;;;;13.67;75.52;95981.00;5029466;28;20109;-60
2022/05/06 09:39:38;;;;;;;2.42;2.33;;;;;;;13.83;76.19;95979.47;5017774;28;20029;-60
2022/05/06 09:42:06;;;;;;;2.40;2.30;;;;;;;14.01;74.19;95974.13;5022468;28;20087;-60
2022/05/06 09:44:35;;;;;;;2.10;2.00;;;;;;;14.07;73.79;95975.31;5022262;28;20034;-60
2022/05/06 09:47:11;;;;;;;2.33;2.22;;;;;;;14.22;73.33;95978.19;5021762;28;20033;-60
2022/05/06 09:49:41;;;;;;;2.10;2.00;;;;;;;14.21;72.84;95984.47;5016556;28;20519;-60
2022/05/06 09:52:13;;;;;;;2.03;1.92;;;;;;;14.19;70.92;95981.97;5022759;28;20026;-60
2022/05/06 09:54:44;;;;;;;2.63;2.17;;;;;;;14.29;72.25;95981.88;5018012;28;20029;-61
2022/05/06 09:57:11;;;;;;;2.50;2.28;;;;;;;14.24;72.56;95982.34;5020541;28;20033;-60
2022/05/06 09:59:37;;;;;;;2.33;2.22;;;;;;;14.37;71.78;95984.56;5026440;28;20100;-60
2022/05/06 10:02:07;;;;;;;2.40;2.30;;;;;;;14.07;72.30;95988.53;5025016;28;20488;-60
2022/05/06 10:04:35;;;;;;;2.10;2.00;;;;;;;14.42;71.97;95989.38;5022292;28;20037;-60
2022/05/06 10:07:00;;;;;;;2.08;1.98;;;;;;;14.53;70.50;95981.16;5027504;28;20076;-60
2022/05/06 10:09:29;;;;;;;2.78;2.58;;;;;;;14.70;69.93;95983.84;5030936;28;20031;-60
2022/05/06 10:11:58;;;;;;;2.85;2.70;;;;;;;14.90;69.16;95985.25;5024629;28;20725;-60
2022/05/06 10:14:23;;;;;;;2.88;2.67;;;;;;;14.62;70.75;95982.03;5016830;28;20551;-60
2022/05/06 10:16:49;;;;;;;2.60;2.40;;;;;;;14.57;71.73;95986.94;5019935;28;20025;-60
2022/05/06 10:19:44;;;;;;;2.85;2.72;;;;;;;14.43;71.68;95988.38;5020262;28;20030;-59
2022/05/06 10:22:09;;;;;;;2.53;2.38;;;;;;;14.40;71.78;95991.34;5026429;28;20017;-60
2022/05/06 10:24:48;;;;;;;2.83;2.63;;;;;;;14.55;68.87;95996.88;5021711;28;20106;-60
2022/05/06 10:33:18;;;;;;;2.38;2.28;;;;;;;14.25;70.54;95993.78;5023365;28;20103;-60
2022/05/06 10:35:46;;;;;;;4.05;2.20;;;;;;;14.44;70.49;95990.03;5015337;28;20030;-60
2022/05/06 10:38:29;;;;;;;6.38;2.50;;;;;;;14.35;71.61;95994.47;5027381;28;20049;-60
2022/05/06 10:41:01;;;;;;;2.65;2.45;;;;;;;14.31;72.11;95988.69;5019928;28;20034;-60
2022/05/06 10:43:52;;;;;;;2.03;1.92;;;;;;;14.51;70.23;95983.13;5021557;28;20032;-59
2022/05/06 10:46:31;;;;;;;2.20;2.10;;;;;;;14.45;71.94;95991.69;5026199;28;20037;-60
2022/05/06 10:49:46;;;;;;;2.60;2.40;;;;;;;14.21;71.61;95982.66;5014152;28;20489;-60
2022/05/06 10:52:24;;;;;;;2.42;2.33;;;;;;;14.26;73.32;95980.38;5013129;28;20033;-59
2022/05/06 10:54:58;;;;;;;2.35;2.15;;;;;;;14.35;71.26;95983.06;5016615;28;20113;-60
2022/05/06 10:57:25;;;;;;;2.30;2.10;;;;;;;14.14;71.93;95978.97;5012891;28;20065;-60
2022/05/06 11:00:02;;;;;;;3.55;2.53;;;;;;;14.08;72.20;95977.78;5013900;28;20050;-61
2022/05/06 11:02:32;;;;;;;2.05;1.95;;;;;;;14.35;69.43;95981.22;5025647;28;20025;-60
2022/05/06 11:05:07;;;;;;;2.33;1.77;;;;;;;14.35;70.16;95983.06;5013389;28;20117;-61
2022/05/06 11:07:34;;;;;;;6.73;2.13;;;;;;;14.38;70.95;95985.38;5021164;28;20028;-60
2022/05/06 11:10:08;;;;;;;1.80;1.70;;;;;;;14.43;71.50;95985.72;5023579;28;20029;-60
2022/05/06 11:12:40;;;;;;;1.50;1.50;;;;;;;14.59;70.79;95988.47;5021039;28;20034;-60
2022/05/06 11:15:15;;;;;;;1.65;1.55;;;;;;;14.82;70.59;95987.91;5024793;28;20807;-60
2022/05/06 11:17:42;;;;;;;2.08;1.85;;;;;;;15.18;67.97;95990.31;5019912;28;20091;-60
2022/05/06 11:20:37;;;;;;;5.03;1.98;;;;;;;15.22;66.15;95979.38;5025683;28;20037;-60
2022/05/06 11:23:11;;;;;;;2.78;1.75;;;;;;;15.26;67.25;95984.19;5017624;28;20129;-60
2022/05/06 11:25:43;;;;;;;2.60;1.92;;;;;;;15.34;67.34;95986.00;5017683;28;20480;-60
2022/05/06 11:28:17;;;;;;;2.28;1.63;;;;;;;15.56;67.02;95987.19;5025602;28;20037;-59
2022/05/06 11:30:45;;;;;;;1.92;1.83;;;;;;;15.76;66.02;95977.03;5024692;28;20021;-60
2022/05/06 11:33:26;;;;;;;3.53;1.85;;;;;;;15.85;65.45;95985.00;5023258;28;20476;-60
2022/05/06 11:36:02;;;;;;;1.92;1.83;;;;;;;15.97;64.29;95980.22;5017415;28;20669;-60
2022/05/06 11:38:39;;;;;;;2.05;1.75;;;;;;;15.68;66.31;95974.41;5028442;28;20041;-60
2022/05/06 11:41:14;;;;;;;1.20;1.20;;;;;;;15.55;66.48;95977.56;5018930;28;20030;-60
2022/05/06 11:43:42;;;;;;;3.92;1.65;;;;;;;15.79;66.76;95975.03;5014437;28;20026;-60
2022/05/06 11:49:01;;;;;;;1.50;1.50;;;;;;;16.02;66.62;95981.34;5013855;28;20031;-60
2022/05/06 11:51:30;;;;;;;1.50;1.50;;;;;;;15.89;65.45;95975.75;5020190;28;20100;-60
2022/05/06 11:53:57;;;;;;;1.63;1.52;;;;;;;15.63;65.82;95976.75;5019535;28;20026;-60
2022/05/06 11:56:27;;;;;;;3.17;1.70;;;;;;;15.74;65.79;95978.22;5018760;28;20021;-60
2022/05/06 11:58:56;;;;;;;2.00;1.60;;;;;;;15.76;64.91;95974.38;5026562;28;20049;-60
2022/05/06 12:01:32;;;;;;;1.95;1.85;;;;;;;15.95;63.92;95975.06;5019963;28;20035;-60
2022/05/06 12:03:59;;;;;;;5.35;1.48;;;;;;;15.81;65.04;95981.03;5019211;28;20025;-60
2022/05/06 12:06:27;;;;;;;1.25;1.25;;;;;;;15.73;65.82;95979.22;5020337;28;20040;-60
2022/05/06 12:09:06;;;;;;;1.95;1.73;;;;;;;15.85;66.01;95974.41;5028413;28;20391;-60
2022/05/06 12:11:32;;;;;;;1.50;1.50;;;;;;;15.44;64.33;95975.22;5017135;28;20028;-60
2022/05/06 12:14:04;;;;;;;1.20;1.20;;;;;;;15.36;66.82;95976.06;5022705;28;20104;-60